createdAt,value
2022-11-21T00:00:47.920Z,1.23
2022-11-21T00:03:14.573Z,1.24
2022-11-21T00:05:45.620Z,1.24
2022-11-21T00:08:14.085Z,1.25
2022-11-21T00:10:41.028Z,1.24
2022-11-21T00:13:08.365Z,1.23
2022-11-21T00:15:37.574Z,1.23
2022-11-21T00:18:04.528Z,1.21
2022-11-21T00:20:31.593Z,1.22
2022-11-21T00:22:58.063Z,1.21
2022-11-21T00:25:24.469Z,1.21
2022-11-21T00:27:52.731Z,1.23
2022-11-21T00:30:19.244Z,1.22
2022-11-21T00:32:45.648Z,1.21
2022-11-21T00:35:12.314Z,1.21
2022-11-21T00:37:39.299Z,1.20
2022-11-21T00:40:06.298Z,1.21
2022-11-21T00:42:32.738Z,1.20
2022-11-21T00:44:59.139Z,1.20
2022-11-21T00:47:25.610Z,1.21
2022-11-21T00:49:52.000Z,1.21
2022-11-21T00:52:18.501Z,1.18
2022-11-21T00:54:44.938Z,1.19
2022-11-21T00:57:11.354Z,1.20
2022-11-21T00:59:37.743Z,1.21
2022-11-21T01:02:05.336Z,1.22
2022-11-21T01:04:35.166Z,1.24
2022-11-21T01:07:01.618Z,1.24
2022-11-21T01:09:28.657Z,1.24
2022-11-21T01:11:56.351Z,1.25
2022-11-21T01:14:23.540Z,1.25
2022-11-21T01:16:49.996Z,1.25
2022-11-21T01:19:16.415Z,1.27
2022-11-21T01:21:42.822Z,1.26
2022-11-21T01:24:11.519Z,1.28
2022-11-21T01:26:38.397Z,1.29
2022-11-21T01:29:05.248Z,1.31
2022-11-21T01:31:31.894Z,1.31
2022-11-21T01:33:59.500Z,1.32
2022-11-21T01:36:28.381Z,1.32
2022-11-21T01:38:57.120Z,1.33
2022-11-21T01:41:33.518Z,1.33
2022-11-21T01:44:01.127Z,1.31
2022-11-21T01:46:27.586Z,1.30
2022-11-21T01:49:07.049Z,1.28
2022-11-21T01:51:41.140Z,1.28
2022-11-21T01:54:19.046Z,1.26
2022-11-21T01:57:04.290Z,1.24
2022-11-21T01:59:38.286Z,1.23
2022-11-21T02:02:06.980Z,1.24
2022-11-21T02:04:34.287Z,1.24
2022-11-21T02:07:03.393Z,1.25
2022-11-21T02:09:31.804Z,1.27
2022-11-21T02:12:01.955Z,1.27
2022-11-21T02:14:29.144Z,1.28
2022-11-21T02:16:58.694Z,1.29
2022-11-21T02:19:36.347Z,1.30
2022-11-21T02:22:07.277Z,1.30
2022-11-21T02:24:40.185Z,1.32
2022-11-21T02:27:06.976Z,1.31
2022-11-21T02:29:33.507Z,1.28
2022-11-21T02:32:03.028Z,1.28
2022-11-21T02:34:29.645Z,1.28
2022-11-21T02:36:56.632Z,1.24
2022-11-21T02:39:29.473Z,1.24
2022-11-21T02:42:33.336Z,1.22
2022-11-21T02:45:18.021Z,1.20
2022-11-21T02:47:45.261Z,1.20
2022-11-21T02:50:15.617Z,1.20
2022-11-21T02:52:42.041Z,1.19
2022-11-21T02:55:09.061Z,1.17
2022-11-21T02:57:35.545Z,1.19
2022-11-21T03:00:02.057Z,1.21
2022-11-21T03:02:28.485Z,1.21
2022-11-21T03:04:54.891Z,1.19
2022-11-21T03:07:21.303Z,1.19
2022-11-21T03:09:47.766Z,1.19
2022-11-21T03:12:14.200Z,1.18
2022-11-21T03:14:40.588Z,1.16
2022-11-21T03:17:07.012Z,1.17
2022-11-21T03:19:33.420Z,1.17
2022-11-21T03:21:59.961Z,1.18
2022-11-21T03:24:26.750Z,1.18
2022-11-21T03:26:53.352Z,1.19
2022-11-21T03:29:19.828Z,1.20
2022-11-21T03:31:46.261Z,1.20
2022-11-21T03:34:12.675Z,1.20
2022-11-21T03:36:39.080Z,1.17
2022-11-21T03:39:05.685Z,1.18
2022-11-21T03:41:32.218Z,1.17
2022-11-21T03:44:00.803Z,1.16
2022-11-21T03:46:31.283Z,1.16
2022-11-21T03:48:57.984Z,1.14
2022-11-21T03:51:24.433Z,1.13
2022-11-21T03:53:50.941Z,1.12
2022-11-21T03:56:17.698Z,1.13
2022-11-21T03:58:44.664Z,1.14
2022-11-21T04:01:13.166Z,1.12
2022-11-21T04:03:42.122Z,1.11
2022-11-21T04:06:09.380Z,1.10
2022-11-21T04:08:36.022Z,1.07
2022-11-21T04:11:02.542Z,1.07
2022-11-21T04:13:29.228Z,1.06
2022-11-21T04:15:55.769Z,1.05
2022-11-21T04:18:22.174Z,1.03
2022-11-21T04:20:48.634Z,1.02
2022-11-21T04:23:15.109Z,1.00
2022-11-21T04:25:41.749Z,1.00
2022-11-21T04:28:12.877Z,1.00
2022-11-21T04:30:39.300Z,0.97
2022-11-21T04:33:05.751Z,1.00
2022-11-21T04:35:32.225Z,0.99
2022-11-21T04:37:58.613Z,1.02
2022-11-21T04:40:25.100Z,1.04
2022-11-21T04:42:51.506Z,1.03
2022-11-21T04:45:18.075Z,1.05
2022-11-21T04:47:45.655Z,1.05
2022-11-21T04:50:14.098Z,1.05
2022-11-21T04:52:41.144Z,1.06
2022-11-21T04:55:08.235Z,1.05
2022-11-21T04:57:34.789Z,1.06
2022-11-21T05:00:01.406Z,1.03
2022-11-21T05:02:27.805Z,1.03
2022-11-21T05:04:54.207Z,1.06
2022-11-21T05:07:20.628Z,1.07
2022-11-21T05:09:47.075Z,1.10
2022-11-21T05:12:32.030Z,1.10
2022-11-21T05:14:58.435Z,1.10
2022-11-21T05:17:24.869Z,1.10
2022-11-21T05:19:52.301Z,1.11
2022-11-21T05:22:18.733Z,1.09
2022-11-21T05:24:45.146Z,1.06
2022-11-21T05:27:11.561Z,1.05
2022-11-21T05:29:37.977Z,1.06
2022-11-21T05:32:04.548Z,1.07
2022-11-21T05:34:31.117Z,1.09
2022-11-21T05:37:00.503Z,1.08
2022-11-21T05:39:27.192Z,1.07
2022-11-21T05:41:56.168Z,1.08
2022-11-21T05:44:26.566Z,1.06
2022-11-21T05:46:53.252Z,1.05
2022-11-21T05:49:19.649Z,1.03
2022-11-21T05:51:46.058Z,1.02
2022-11-21T05:54:14.605Z,1.02
2022-11-21T05:56:41.322Z,1.01
2022-11-21T05:59:08.659Z,1.02
2022-11-21T06:01:53.735Z,1.03
2022-11-21T06:04:20.286Z,1.04
2022-11-21T06:06:46.712Z,1.05
2022-11-21T06:09:13.110Z,1.05
2022-11-21T06:11:39.543Z,1.04
2022-11-21T06:14:06.026Z,1.05
2022-11-21T06:16:32.480Z,1.04
2022-11-21T06:18:59.090Z,1.02
2022-11-21T06:21:28.125Z,1.03
2022-11-21T06:23:56.587Z,1.04
2022-11-21T06:26:25.154Z,1.02
2022-11-21T06:28:51.636Z,1.02
2022-11-21T06:31:23.631Z,1.01
2022-11-21T06:33:57.165Z,0.98
2022-11-21T06:36:23.618Z,0.97
2022-11-21T06:38:50.067Z,0.94
2022-11-21T06:41:21.729Z,0.90
2022-11-21T06:43:48.280Z,0.88
2022-11-21T06:46:15.347Z,0.84
2022-11-21T06:48:42.436Z,0.80
2022-11-21T06:51:13.745Z,0.79
2022-11-21T06:53:40.226Z,0.78
2022-11-21T06:56:06.706Z,0.75
2022-11-21T06:58:33.116Z,0.74
2022-11-21T07:01:04.571Z,0.72
2022-11-21T07:03:31.066Z,0.71
2022-11-21T07:06:01.598Z,0.70
2022-11-21T07:08:33.062Z,0.69
2022-11-21T07:11:24.695Z,0.67
2022-11-21T07:13:52.099Z,0.67
2022-11-21T07:16:18.671Z,0.67
2022-11-21T07:18:45.515Z,0.67
2022-11-21T07:21:11.939Z,0.67
2022-11-21T07:23:38.404Z,0.67
2022-11-21T07:26:07.552Z,0.70
2022-11-21T07:28:34.511Z,0.71
2022-11-21T07:31:01.816Z,0.72
2022-11-21T07:33:28.367Z,0.73
2022-11-21T07:35:58.478Z,0.75
2022-11-21T07:38:25.847Z,0.76
2022-11-21T07:40:52.869Z,0.79
2022-11-21T07:43:19.271Z,0.80
2022-11-21T07:45:45.670Z,0.82
2022-11-21T07:48:12.963Z,0.84
2022-11-21T07:50:39.753Z,0.85
2022-11-21T07:53:07.567Z,0.87
2022-11-21T07:55:37.796Z,0.88
2022-11-21T07:58:09.677Z,0.93
2022-11-21T08:00:38.333Z,0.96
2022-11-21T08:03:05.709Z,0.98
2022-11-21T08:05:35.352Z,1.00
2022-11-21T08:08:01.757Z,1.05
2022-11-21T08:10:28.215Z,1.07
2022-11-21T08:12:54.685Z,1.10
2022-11-21T08:15:21.081Z,1.13
2022-11-21T08:17:47.958Z,1.17
2022-11-21T08:20:15.262Z,1.24
2022-11-21T08:22:41.965Z,1.25
2022-11-21T08:25:09.716Z,1.30
2022-11-21T08:27:39.619Z,1.33
2022-11-21T08:30:08.166Z,1.39
2022-11-21T08:32:34.651Z,1.42
2022-11-21T08:35:01.139Z,1.45
2022-11-21T08:37:31.026Z,1.47
2022-11-21T08:39:58.976Z,1.54
2022-11-21T08:42:25.993Z,1.56
2022-11-21T08:44:52.459Z,1.62
2022-11-21T08:47:20.448Z,1.67
2022-11-21T08:49:47.430Z,1.68
2022-11-21T08:52:14.793Z,1.73
2022-11-21T08:54:41.323Z,1.77
2022-11-21T08:57:07.739Z,1.80
2022-11-21T08:59:34.146Z,1.84
2022-11-21T09:02:00.598Z,1.84
2022-11-21T09:04:27.385Z,1.84
2022-11-21T09:06:53.937Z,1.85
2022-11-21T09:09:25.062Z,1.88
2022-11-21T09:11:51.914Z,1.92
2022-11-21T09:14:36.922Z,1.95
2022-11-21T09:17:21.991Z,1.98
2022-11-21T09:19:48.969Z,2.00
2022-11-21T09:22:15.454Z,2.03
2022-11-21T09:24:41.863Z,1.98
2022-11-21T09:27:08.258Z,2.02
2022-11-21T09:29:34.754Z,2.07
2022-11-21T09:32:01.154Z,2.12
2022-11-21T09:34:27.788Z,2.17
2022-11-21T09:36:55.472Z,2.19
2022-11-21T09:39:21.964Z,2.22
2022-11-21T09:41:54.509Z,2.23
2022-11-21T09:44:53.542Z,2.27
2022-11-21T09:47:30.816Z,2.30
2022-11-21T09:50:29.585Z,2.29
2022-11-21T09:53:05.054Z,2.25
2022-11-21T09:55:34.509Z,2.26
2022-11-21T09:58:03.447Z,2.24
2022-11-21T10:00:30.146Z,2.25
2022-11-21T10:02:56.918Z,2.25
2022-11-21T10:05:35.283Z,2.25
2022-11-21T10:08:07.629Z,2.24
2022-11-21T10:10:53.440Z,2.25
2022-11-21T10:13:32.938Z,2.27
2022-11-21T10:16:14.564Z,2.20
2022-11-21T10:19:02.807Z,2.25
2022-11-21T10:21:37.263Z,2.25
2022-11-21T10:24:22.425Z,2.23
2022-11-21T10:27:01.142Z,2.17
2022-11-21T10:29:41.968Z,2.17
2022-11-21T10:32:23.533Z,2.20
2022-11-21T10:34:52.165Z,2.16
2022-11-21T10:37:28.917Z,2.14
2022-11-21T10:39:56.682Z,2.10
2022-11-21T10:42:36.337Z,2.10
2022-11-21T10:45:19.287Z,2.14
2022-11-21T10:47:47.777Z,2.18
2022-11-21T10:50:29.299Z,2.16
2022-11-21T10:53:27.525Z,2.16
2022-11-21T10:56:01.205Z,2.17
2022-11-21T10:58:44.945Z,2.17
2022-11-21T11:01:27.946Z,2.17
2022-11-21T11:06:56.760Z,2.19
2022-11-21T11:09:31.905Z,2.21
2022-11-21T11:12:23.942Z,2.23
2022-11-21T11:14:52.502Z,2.23
2022-11-21T11:17:30.312Z,2.28
2022-11-21T11:20:02.636Z,2.32
2022-11-21T11:22:30.122Z,2.38
2022-11-21T11:25:00.386Z,2.41
2022-11-21T11:27:28.778Z,2.43
2022-11-21T11:29:55.567Z,2.43
2022-11-21T11:32:22.669Z,2.43
2022-11-21T11:35:00.190Z,2.49
2022-11-21T11:37:40.291Z,2.53
2022-11-21T11:40:19.191Z,2.50
2022-11-21T11:43:41.883Z,2.52
2022-11-21T11:46:32.580Z,2.52
2022-11-21T11:49:20.774Z,2.51
2022-11-21T11:52:01.743Z,2.54
2022-11-21T11:54:34.045Z,2.58
2022-11-21T11:57:00.558Z,2.59
2022-11-21T11:59:34.042Z,2.59
2022-11-21T12:02:11.825Z,2.63
2022-11-21T12:04:48.088Z,2.66
2022-11-21T12:10:32.551Z,2.69
2022-11-21T12:13:11.287Z,2.73
2022-11-21T12:15:50.829Z,2.74
2022-11-21T12:18:20.443Z,2.74
2022-11-21T12:20:52.824Z,2.77
2022-11-21T12:23:19.904Z,2.79
2022-11-21T12:26:07.772Z,2.82
2022-11-21T12:28:49.269Z,2.85
2022-11-21T12:31:26.292Z,2.86
2022-11-21T12:34:09.540Z,2.89
2022-11-21T12:37:02.899Z,2.89
2022-11-21T12:39:46.350Z,2.90
2022-11-21T12:42:50.071Z,2.90
2022-11-21T12:45:34.520Z,2.90
2022-11-21T12:48:31.980Z,2.91
2022-11-21T12:51:41.763Z,2.91
2022-11-21T12:54:30.951Z,2.88
2022-11-21T12:57:14.034Z,2.87
2022-11-21T12:59:52.362Z,2.84
2022-11-21T13:02:21.712Z,2.84
2022-11-21T13:04:50.664Z,2.86
2022-11-21T13:07:18.409Z,2.87
2022-11-21T13:09:48.583Z,2.85
2022-11-21T13:12:21.591Z,2.88
2022-11-21T13:14:55.579Z,2.89
2022-11-21T13:17:31.055Z,2.83
2022-11-21T13:20:07.078Z,2.81
2022-11-21T13:22:36.576Z,2.79
2022-11-21T13:25:02.882Z,2.79
2022-11-21T13:27:33.529Z,2.76
2022-11-21T13:30:07.329Z,2.72
2022-11-21T13:32:41.824Z,2.70
2022-11-21T13:35:14.982Z,2.68
2022-11-21T13:38:04.526Z,2.66
2022-11-21T13:40:30.828Z,2.68
2022-11-21T13:43:34.139Z,2.66
2022-11-21T13:46:01.551Z,2.62
2022-11-21T13:48:37.111Z,2.64
2022-11-21T13:51:09.595Z,2.66
2022-11-21T13:53:53.713Z,2.67
2022-11-21T13:56:45.395Z,2.72
2022-11-21T13:59:20.734Z,2.73
2022-11-21T14:01:59.270Z,2.68
2022-11-21T14:04:44.192Z,2.59
2022-11-21T14:07:31.400Z,2.58
2022-11-21T14:09:59.825Z,2.52
2022-11-21T14:12:39.633Z,2.54
2022-11-21T14:15:34.726Z,2.52
2022-11-21T14:18:01.291Z,2.47
2022-11-21T14:20:30.220Z,2.50
2022-11-21T14:23:05.290Z,2.53
2022-11-21T14:25:40.665Z,2.46
2022-11-21T14:28:11.231Z,2.47
2022-11-21T14:30:40.058Z,2.39
2022-11-21T14:33:28.172Z,2.40
2022-11-21T14:36:06.645Z,2.37
2022-11-21T14:38:36.619Z,2.33
2022-11-21T14:41:24.268Z,2.33
2022-11-21T14:43:57.197Z,2.31
2022-11-21T14:46:25.474Z,2.23
2022-11-21T14:48:54.791Z,2.25
2022-11-21T14:51:25.948Z,2.23
2022-11-21T14:53:53.615Z,2.18
2022-11-21T14:56:26.239Z,2.16
2022-11-21T14:58:53.864Z,2.11
2022-11-21T15:01:22.459Z,2.09
2022-11-21T15:04:01.079Z,2.03
2022-11-21T15:06:29.697Z,2.00
2022-11-21T15:10:11.632Z,1.96
2022-11-21T15:11:56.570Z,1.88
2022-11-21T15:14:27.975Z,1.87
2022-11-21T15:16:55.504Z,1.85
2022-11-21T15:19:27.866Z,1.83
2022-11-21T15:21:56.765Z,1.77
2022-11-21T15:24:30.829Z,1.80
2022-11-21T15:26:58.430Z,1.78
2022-11-21T15:29:25.152Z,1.73
2022-11-21T15:32:16.249Z,1.71
2022-11-21T15:34:43.419Z,1.70
2022-11-21T15:37:16.241Z,1.66
2022-11-21T15:39:44.323Z,1.65
2022-11-21T15:42:32.716Z,1.62
2022-11-21T15:45:20.760Z,1.59
2022-11-21T15:47:47.549Z,1.58
2022-11-21T15:50:14.807Z,1.54
2022-11-21T15:52:48.726Z,1.49
2022-11-21T15:55:20.442Z,1.47
2022-11-21T15:57:47.023Z,1.45
2022-11-21T16:00:15.224Z,1.41
2022-11-21T16:02:41.707Z,1.39
2022-11-21T16:05:11.624Z,1.38
2022-11-21T16:07:38.092Z,1.36
2022-11-21T16:10:05.097Z,1.36
2022-11-21T16:12:31.557Z,1.35
2022-11-21T16:14:57.962Z,1.33
2022-11-21T16:17:24.553Z,1.30
2022-11-21T16:19:50.940Z,1.27
2022-11-21T16:22:17.362Z,1.28
2022-11-21T16:24:43.748Z,1.28
2022-11-21T16:27:10.170Z,1.25
2022-11-21T16:29:36.747Z,1.24
2022-11-21T16:32:03.170Z,1.22
2022-11-21T16:34:29.667Z,1.20
2022-11-21T16:36:56.184Z,1.19
2022-11-21T16:39:22.584Z,1.19
2022-11-21T16:41:49.337Z,1.18
2022-11-21T16:44:16.428Z,1.17
2022-11-21T16:46:45.209Z,1.16
2022-11-21T16:49:11.610Z,1.16
2022-11-21T16:51:38.141Z,1.16
2022-11-21T16:54:08.837Z,1.15
2022-11-21T16:56:35.922Z,1.13
2022-11-21T16:59:02.458Z,1.12
2022-11-21T17:01:28.933Z,1.10
2022-11-21T17:03:55.380Z,1.09
2022-11-21T17:06:24.338Z,1.07
2022-11-21T17:08:51.068Z,1.05
2022-11-21T17:11:22.570Z,1.05
2022-11-21T17:13:50.362Z,1.03
2022-11-21T17:16:19.059Z,1.04
2022-11-21T17:18:45.767Z,1.04
2022-11-21T17:21:15.845Z,1.02
2022-11-21T17:23:44.220Z,1.01
2022-11-21T17:26:12.862Z,1.02
2022-11-21T17:28:45.053Z,0.98
2022-11-21T17:31:14.435Z,0.99
2022-11-21T17:33:41.193Z,0.96
2022-11-21T17:36:11.569Z,0.95
2022-11-21T17:38:38.537Z,0.93
2022-11-21T17:41:07.051Z,0.94
2022-11-21T17:43:34.196Z,0.93
2022-11-21T17:46:10.402Z,0.94
2022-11-21T17:48:37.306Z,0.92
2022-11-21T17:51:06.558Z,0.88
2022-11-21T17:53:34.847Z,0.88
2022-11-21T17:56:02.060Z,0.87
2022-11-21T17:58:29.155Z,0.90
2022-11-21T18:01:00.371Z,0.92
2022-11-21T18:03:27.676Z,0.93
2022-11-21T18:06:06.064Z,0.94
2022-11-21T18:08:33.667Z,0.97
2022-11-21T18:11:00.276Z,0.98
2022-11-21T18:13:28.243Z,0.99
2022-11-21T18:15:55.028Z,1.02
2022-11-21T18:18:22.186Z,1.02
2022-11-21T18:20:48.617Z,1.02
2022-11-21T18:23:15.065Z,1.03
2022-11-21T18:25:41.690Z,1.05
2022-11-21T18:28:08.273Z,1.07
2022-11-21T18:30:34.802Z,1.06
2022-11-21T18:33:01.301Z,1.08
2022-11-21T18:35:27.762Z,1.06
2022-11-21T18:37:55.570Z,1.04
2022-11-21T18:40:22.101Z,1.04
2022-11-21T18:42:48.546Z,1.07
2022-11-21T18:45:14.969Z,1.07
2022-11-21T18:47:41.755Z,1.02
2022-11-21T18:50:08.450Z,1.03
2022-11-21T18:52:37.630Z,1.05
2022-11-21T18:55:07.435Z,1.06
2022-11-21T18:57:33.852Z,1.07
2022-11-21T19:00:00.344Z,1.09
2022-11-21T19:02:26.776Z,1.10
2022-11-21T19:04:53.246Z,1.11
2022-11-21T19:07:19.701Z,1.11
2022-11-21T19:09:46.526Z,1.12
2022-11-21T19:12:13.016Z,1.15
2022-11-21T19:14:39.667Z,1.16
2022-11-21T19:17:06.113Z,1.21
2022-11-21T19:19:34.736Z,1.19
2022-11-21T19:22:04.110Z,1.21
2022-11-21T19:24:30.518Z,1.20
2022-11-21T19:26:56.983Z,1.23
2022-11-21T19:29:23.406Z,1.23
2022-11-21T19:31:49.831Z,1.25
2022-11-21T19:34:16.817Z,1.27
2022-11-21T19:36:44.258Z,1.27
2022-11-21T19:39:11.203Z,1.26
2022-11-21T19:41:37.642Z,1.26
2022-11-21T19:44:04.243Z,1.27
2022-11-21T19:46:33.087Z,1.28
2022-11-21T19:49:00.475Z,1.27
2022-11-21T19:51:35.359Z,1.27
2022-11-21T19:54:03.058Z,1.25
2022-11-21T19:56:29.475Z,1.23
2022-11-21T19:58:56.832Z,1.24
2022-11-21T20:01:25.348Z,1.22
2022-11-21T20:03:54.464Z,1.21
2022-11-21T20:06:23.894Z,1.20
2022-11-21T20:08:55.265Z,1.19
2022-11-21T20:11:22.745Z,1.19
2022-11-21T20:13:49.773Z,1.17
2022-11-21T20:16:24.543Z,1.15
2022-11-21T20:18:51.794Z,1.16
2022-11-21T20:21:19.114Z,1.14
2022-11-21T20:23:46.667Z,1.15
2022-11-21T20:26:13.818Z,1.13
2022-11-21T20:28:40.503Z,1.13
2022-11-21T20:31:28.196Z,1.16
2022-11-21T20:34:00.711Z,1.15
2022-11-21T20:36:29.300Z,1.13
2022-11-21T20:39:00.413Z,1.15
2022-11-21T20:41:28.891Z,1.16
2022-11-21T20:44:44.627Z,1.15
2022-11-21T20:46:43.231Z,1.14
2022-11-21T20:49:09.680Z,1.14
2022-11-21T20:53:20.570Z,1.13
2022-11-21T20:54:22.632Z,1.12
2022-11-21T20:56:49.031Z,1.11
2022-11-21T20:59:15.609Z,1.10
2022-11-21T21:01:42.090Z,1.11
2022-11-21T21:04:12.103Z,1.13
2022-11-21T21:06:39.503Z,1.13
2022-11-21T21:09:06.005Z,1.14
2022-11-21T21:14:18.830Z,1.09
2022-11-21T21:16:45.245Z,1.12
2022-11-21T21:19:12.631Z,1.11
2022-11-21T21:21:41.324Z,1.11
2022-11-21T21:24:09.902Z,1.12
2022-11-21T21:26:42.157Z,1.11
2022-11-21T21:29:11.697Z,1.12
2022-11-21T21:31:38.148Z,1.10
2022-11-21T21:34:04.594Z,1.08
2022-11-21T21:36:32.051Z,1.10
2022-11-21T21:38:59.800Z,1.09
2022-11-21T21:41:28.082Z,1.09
2022-11-21T21:43:55.678Z,1.10
2022-11-21T21:46:24.834Z,1.09
2022-11-21T21:48:54.600Z,1.08
2022-11-21T21:51:23.229Z,1.08
2022-11-21T21:53:50.788Z,1.06
2022-11-21T21:56:18.383Z,1.08
2022-11-21T21:58:46.146Z,1.10
2022-11-21T22:01:23.333Z,1.08
2022-11-21T22:03:53.656Z,1.11
2022-11-21T22:06:20.159Z,1.11
2022-11-21T22:08:47.886Z,1.12
2022-11-21T22:11:25.790Z,1.15
2022-11-21T22:13:54.407Z,1.16
2022-11-21T22:16:20.834Z,1.19
2022-11-21T22:18:47.510Z,1.21
2022-11-21T22:21:25.295Z,1.23
2022-11-21T22:24:17.660Z,1.24
2022-11-21T22:26:38.468Z,1.23
2022-11-21T22:29:05.236Z,1.27
2022-11-21T22:31:31.671Z,1.28
2022-11-21T22:33:58.711Z,1.29
2022-11-21T22:36:25.140Z,1.31
2022-11-21T22:38:56.092Z,1.34
2022-11-21T22:41:26.662Z,1.35
2022-11-21T22:43:57.711Z,1.38
2022-11-21T22:46:25.815Z,1.40
2022-11-21T22:48:52.250Z,1.43
2022-11-21T22:51:20.979Z,1.44
2022-11-21T22:53:47.919Z,1.46
2022-11-21T22:56:16.262Z,1.47
2022-11-21T22:58:42.651Z,1.48
2022-11-21T23:01:14.531Z,1.49
2022-11-21T23:03:43.744Z,1.52
2022-11-21T23:06:12.098Z,1.53
2022-11-21T23:08:39.533Z,1.51
2022-11-21T23:11:10.104Z,1.55
2022-11-21T23:13:37.406Z,1.55
2022-11-21T23:16:05.155Z,1.57
2022-11-21T23:18:32.185Z,1.58
2022-11-21T23:20:58.885Z,1.60
2022-11-21T23:23:25.556Z,1.61
2022-11-21T23:25:52.414Z,1.64
2022-11-21T23:28:18.855Z,1.65
2022-11-21T23:30:47.505Z,1.66
2022-11-21T23:33:14.504Z,1.66
2022-11-21T23:35:42.393Z,1.67
2022-11-21T23:38:09.391Z,1.69
2022-11-21T23:40:35.833Z,1.69
2022-11-21T23:43:02.337Z,1.67
2022-11-21T23:45:29.052Z,1.65
2022-11-21T23:47:55.441Z,1.65
2022-11-21T23:50:21.869Z,1.65
2022-11-21T23:52:48.355Z,1.67
2022-11-21T23:55:15.505Z,1.68
2022-11-21T23:57:41.931Z,1.69
